createdAt,value
2018-05-31T00:01:04.731Z,6.30
2018-05-31T00:02:09.269Z,5.82
2018-05-31T00:03:13.817Z,6.60
2018-05-31T00:04:19.092Z,5.68
2018-05-31T00:05:24.984Z,6.43
2018-05-31T00:06:29.432Z,5.45
2018-05-31T00:07:33.940Z,5.78
2018-05-31T00:08:38.427Z,6.30
2018-05-31T00:09:42.974Z,5.20
2018-05-31T00:10:47.464Z,6.93
2018-05-31T00:11:52.805Z,6.35
2018-05-31T00:12:58.529Z,5.95
2018-05-31T00:14:02.933Z,5.53
2018-05-31T00:15:07.582Z,6.35
2018-05-31T00:16:12.031Z,5.97
2018-05-31T00:17:16.425Z,6.35
2018-05-31T00:18:21.710Z,5.87
2018-05-31T00:19:26.185Z,5.62
2018-05-31T00:20:30.659Z,6.18
2018-05-31T00:21:35.215Z,5.85
2018-05-31T00:22:39.617Z,6.15
2018-05-31T00:23:44.510Z,6.35
2018-05-31T00:24:49.715Z,7.12
2018-05-31T00:25:54.207Z,6.65
2018-05-31T00:26:58.689Z,6.40
2018-05-31T00:28:04.696Z,6.57
2018-05-31T00:29:10.606Z,5.68
2018-05-31T00:30:15.293Z,6.12
2018-05-31T00:31:19.950Z,6.32
2018-05-31T00:32:24.838Z,6.95
2018-05-31T00:33:29.436Z,6.00
2018-05-31T00:34:33.935Z,6.32
2018-05-31T00:35:38.467Z,5.87
2018-05-31T00:36:43.964Z,5.47
2018-05-31T00:37:48.392Z,6.35
2018-05-31T00:38:53.603Z,5.57
2018-05-31T00:39:59.214Z,7.22
2018-05-31T00:41:03.675Z,7.12
2018-05-31T00:42:08.859Z,6.03
2018-05-31T00:43:13.257Z,6.72
2018-05-31T00:44:17.678Z,6.70
2018-05-31T00:45:22.192Z,5.97
2018-05-31T00:46:26.695Z,6.60
2018-05-31T00:47:31.121Z,6.25
2018-05-31T00:48:35.512Z,6.15
2018-05-31T00:49:39.935Z,6.05
2018-05-31T00:50:44.366Z,7.53
2018-05-31T00:51:49.630Z,6.82
2018-05-31T00:52:54.046Z,7.03
2018-05-31T00:53:58.476Z,6.10
2018-05-31T00:55:03.060Z,6.45
2018-05-31T00:56:17.831Z,6.65
2018-05-31T00:57:23.485Z,6.75
2018-05-31T00:58:28.169Z,6.97
2018-05-31T00:59:32.584Z,6.50
2018-05-31T01:00:37.220Z,7.10
2018-05-31T01:01:41.818Z,6.40
2018-05-31T01:02:46.243Z,6.40
2018-05-31T01:03:50.687Z,6.43
2018-05-31T01:04:55.884Z,6.43
2018-05-31T01:06:00.284Z,6.68
2018-05-31T01:07:04.709Z,6.37
2018-05-31T01:08:09.142Z,6.20
2018-05-31T01:09:13.585Z,6.72
2018-05-31T01:10:18.752Z,7.12
2018-05-31T01:11:23.103Z,6.32
2018-05-31T01:12:27.508Z,6.03
2018-05-31T01:13:31.895Z,5.85
2018-05-31T01:14:36.684Z,7.10
2018-05-31T01:15:41.059Z,5.93
2018-05-31T01:16:46.208Z,5.82
2018-05-31T01:17:50.731Z,7.70
2018-05-31T01:18:55.158Z,6.40
2018-05-31T01:19:59.876Z,6.10
2018-05-31T01:21:04.336Z,6.43
2018-05-31T01:22:09.507Z,5.87
2018-05-31T01:23:13.898Z,6.30
2018-05-31T01:24:18.300Z,5.60
2018-05-31T01:25:22.710Z,6.15
2018-05-31T01:26:27.110Z,6.60
2018-05-31T01:27:32.288Z,6.85
2018-05-31T01:28:36.675Z,6.57
2018-05-31T01:29:41.111Z,5.55
2018-05-31T01:30:46.788Z,5.45
2018-05-31T01:31:51.628Z,5.87
2018-05-31T01:32:56.838Z,6.18
2018-05-31T01:34:01.972Z,6.15
2018-05-31T01:35:07.139Z,6.10
2018-05-31T01:36:11.555Z,7.30
2018-05-31T01:37:15.954Z,6.32
2018-05-31T01:38:29.082Z,6.85
2018-05-31T01:39:33.656Z,6.60
2018-05-31T01:40:38.030Z,6.05
2018-05-31T01:41:42.410Z,6.00
2018-05-31T01:42:47.326Z,7.25
2018-05-31T01:43:51.712Z,7.28
2018-05-31T01:44:56.088Z,5.80
2018-05-31T01:46:00.466Z,6.70
2018-05-31T01:47:04.875Z,5.87
2018-05-31T01:48:09.316Z,6.40
2018-05-31T01:49:14.683Z,5.90
2018-05-31T01:50:19.111Z,6.32
2018-05-31T01:51:23.501Z,6.32
2018-05-31T01:52:27.915Z,6.82
2018-05-31T01:53:32.603Z,6.07
2018-05-31T01:54:38.035Z,5.50
2018-05-31T01:55:43.201Z,6.03
2018-05-31T01:56:47.721Z,5.97
2018-05-31T01:57:52.191Z,5.85
2018-05-31T01:58:57.118Z,5.68
2018-05-31T02:00:01.488Z,6.68
2018-05-31T02:01:06.681Z,6.12
2018-05-31T02:02:11.098Z,6.70
2018-05-31T02:03:15.508Z,5.65
2018-05-31T02:04:19.890Z,6.20
2018-05-31T02:05:24.264Z,6.35
2018-05-31T02:06:28.666Z,6.10
2018-05-31T02:07:33.048Z,5.80
2018-05-31T02:08:37.523Z,7.10
2018-05-31T02:09:43.159Z,6.50
2018-05-31T02:10:47.589Z,5.75
2018-05-31T02:11:51.990Z,5.75
2018-05-31T02:12:56.381Z,5.37
2018-05-31T02:14:01.692Z,5.82
2018-05-31T02:15:06.516Z,5.78
2018-05-31T02:16:11.817Z,5.25
2018-05-31T02:17:16.190Z,5.57
2018-05-31T02:18:20.590Z,6.28
2018-05-31T02:19:25.786Z,5.60
2018-05-31T02:20:30.187Z,5.75
2018-05-31T02:21:34.564Z,6.00
2018-05-31T02:22:38.913Z,6.45
2018-05-31T02:23:43.281Z,5.30
2018-05-31T02:24:47.654Z,6.57
2018-05-31T02:25:53.414Z,6.07
2018-05-31T02:26:57.819Z,5.87
2018-05-31T02:28:02.271Z,5.80
2018-05-31T02:29:06.678Z,5.87
2018-05-31T02:30:11.140Z,6.60
2018-05-31T02:31:16.887Z,6.05
2018-05-31T02:32:21.273Z,6.50
2018-05-31T02:33:26.331Z,5.80
2018-05-31T02:34:30.710Z,5.07
2018-05-31T02:35:35.115Z,6.60
2018-05-31T02:38:37.465Z,5.28
2018-05-31T02:39:41.877Z,6.20
2018-05-31T02:40:46.147Z,6.18
2018-05-31T02:41:50.484Z,5.80
2018-05-31T02:42:54.806Z,5.72
2018-05-31T02:43:59.072Z,5.93
2018-05-31T02:45:03.455Z,5.72
2018-05-31T02:46:08.635Z,5.85
2018-05-31T02:47:13.825Z,6.07
2018-05-31T02:48:18.250Z,6.78
2018-05-31T02:49:23.131Z,5.75
2018-05-31T02:50:28.275Z,5.87
2018-05-31T02:51:33.392Z,5.87
2018-05-31T02:52:37.904Z,5.93
2018-05-31T02:53:43.103Z,5.60
2018-05-31T02:54:47.404Z,6.18
2018-05-31T02:55:51.772Z,5.05
2018-05-31T02:56:56.042Z,5.70
2018-05-31T02:58:01.273Z,6.15
2018-05-31T02:59:06.494Z,5.70
2018-05-31T03:00:11.918Z,5.60
2018-05-31T03:01:16.507Z,6.05
2018-05-31T03:02:21.012Z,5.90
2018-05-31T03:03:25.653Z,5.80
2018-05-31T03:04:30.212Z,5.85
2018-05-31T03:05:34.895Z,6.70
2018-05-31T03:06:39.545Z,5.12
2018-05-31T03:07:43.987Z,5.90
2018-05-31T03:08:48.454Z,5.90
2018-05-31T03:09:53.618Z,5.70
2018-05-31T03:10:58.035Z,6.20
2018-05-31T03:12:02.407Z,5.57
2018-05-31T03:13:06.788Z,5.30
2018-05-31T03:14:11.414Z,5.82
2018-05-31T03:15:15.885Z,4.57
2018-05-31T03:16:20.674Z,4.70
2018-05-31T03:17:25.043Z,5.68
2018-05-31T03:18:29.429Z,5.07
2018-05-31T03:19:33.995Z,5.68
2018-05-31T03:20:39.123Z,5.62
2018-05-31T03:21:43.819Z,6.45
2018-05-31T03:22:48.986Z,5.50
2018-05-31T03:23:53.404Z,5.53
2018-05-31T03:24:57.866Z,6.05
2018-05-31T03:26:03.040Z,5.55
2018-05-31T03:27:07.390Z,5.05
2018-05-31T03:28:12.104Z,5.82
2018-05-31T03:29:17.777Z,5.05
2018-05-31T03:30:22.163Z,5.60
2018-05-31T03:31:26.538Z,5.68
2018-05-31T03:32:30.908Z,5.57
2018-05-31T03:33:35.267Z,5.50
2018-05-31T03:34:39.671Z,5.43
2018-05-31T03:35:44.126Z,5.65
2018-05-31T03:36:49.316Z,5.18
2018-05-31T03:37:54.347Z,5.65
2018-05-31T03:38:58.857Z,6.12
2018-05-31T03:40:04.457Z,5.45
2018-05-31T03:41:08.935Z,6.32
2018-05-31T03:42:14.081Z,5.78
2018-05-31T03:43:18.540Z,6.25
2018-05-31T03:44:22.935Z,5.70
2018-05-31T03:45:27.318Z,5.75
2018-05-31T03:46:31.735Z,5.37
2018-05-31T03:47:36.087Z,6.10
2018-05-31T03:48:40.404Z,5.22
2018-05-31T03:49:45.532Z,5.93
2018-05-31T03:50:50.990Z,5.43
2018-05-31T03:51:55.458Z,5.18
2018-05-31T03:52:59.767Z,4.37
2018-05-31T03:54:04.154Z,5.50
2018-05-31T03:55:09.047Z,5.28
2018-05-31T03:56:13.437Z,5.57
2018-05-31T03:57:17.862Z,5.65
2018-05-31T03:58:22.240Z,5.60
2018-05-31T03:59:26.556Z,5.50
2018-05-31T04:00:31.957Z,5.25
2018-05-31T04:01:36.815Z,5.65
2018-05-31T04:02:41.957Z,6.30
2018-05-31T04:03:46.367Z,6.25
2018-05-31T04:04:50.776Z,5.28
2018-05-31T04:05:55.995Z,6.30
2018-05-31T04:07:00.838Z,6.18
2018-05-31T04:08:05.454Z,6.10
2018-05-31T04:09:09.872Z,5.72
2018-05-31T04:10:14.524Z,5.53
2018-05-31T04:11:19.307Z,5.22
2018-05-31T04:12:23.684Z,6.22
2018-05-31T04:13:28.090Z,5.60
2018-05-31T04:14:33.219Z,6.65
2018-05-31T04:15:37.748Z,5.68
2018-05-31T04:16:42.232Z,5.53
2018-05-31T04:17:47.442Z,5.12
2018-05-31T04:18:51.888Z,5.87
2018-05-31T04:19:56.305Z,5.40
2018-05-31T04:21:00.806Z,5.93
2018-05-31T04:22:05.274Z,5.45
2018-05-31T04:23:10.362Z,5.50
2018-05-31T04:24:14.758Z,5.70
2018-05-31T04:25:19.163Z,5.65
2018-05-31T04:26:23.650Z,5.50
2018-05-31T04:27:29.031Z,5.78
2018-05-31T04:28:33.451Z,5.10
2018-05-31T04:29:37.910Z,5.70
2018-05-31T04:30:42.374Z,5.35
2018-05-31T04:31:47.657Z,4.60
2018-05-31T04:32:52.152Z,5.05
2018-05-31T04:33:57.342Z,5.87
2018-05-31T04:35:01.735Z,5.62
2018-05-31T04:36:06.180Z,5.65
2018-05-31T04:37:10.767Z,5.30
2018-05-31T04:38:15.362Z,5.55
2018-05-31T04:39:19.841Z,5.45
2018-05-31T04:40:25.348Z,6.07
2018-05-31T04:41:29.812Z,5.35
2018-05-31T04:42:34.238Z,6.12
2018-05-31T04:43:38.645Z,4.90
2018-05-31T04:44:43.051Z,5.82
2018-05-31T04:45:47.468Z,5.70
2018-05-31T04:46:51.902Z,5.68
2018-05-31T04:47:56.323Z,6.12
2018-05-31T04:49:00.719Z,5.35
2018-05-31T04:50:05.090Z,5.22
2018-05-31T04:51:09.484Z,5.35
2018-05-31T04:52:14.631Z,6.30
2018-05-31T04:53:19.050Z,5.65
2018-05-31T04:54:23.417Z,5.70
2018-05-31T04:55:27.825Z,4.87
2018-05-31T04:56:32.447Z,5.22
2018-05-31T04:57:37.923Z,5.70
2018-05-31T04:58:42.357Z,6.05
2018-05-31T04:59:46.785Z,5.40
2018-05-31T05:00:51.940Z,5.12
2018-05-31T05:01:56.543Z,5.68
2018-05-31T05:03:01.184Z,5.12
2018-05-31T05:04:05.804Z,5.28
2018-05-31T05:05:10.224Z,5.50
2018-05-31T05:06:14.613Z,5.95
2018-05-31T05:07:19.012Z,5.15
2018-05-31T05:08:24.769Z,4.85
2018-05-31T05:09:29.186Z,6.47
2018-05-31T05:10:33.649Z,5.05
2018-05-31T05:11:38.027Z,5.68
2018-05-31T05:12:42.496Z,4.57
2018-05-31T05:13:48.062Z,5.53
2018-05-31T05:14:52.852Z,6.03
2018-05-31T05:15:57.254Z,4.93
2018-05-31T05:17:02.367Z,5.32
2018-05-31T05:18:08.386Z,5.72
2018-05-31T05:19:13.111Z,5.03
2018-05-31T05:20:17.685Z,4.95
2018-05-31T05:21:22.117Z,4.90
2018-05-31T05:22:26.578Z,5.32
2018-05-31T05:23:32.402Z,5.30
2018-05-31T05:24:37.589Z,4.97
2018-05-31T05:25:42.248Z,6.12
2018-05-31T05:26:46.657Z,4.30
2018-05-31T05:27:50.999Z,5.18
2018-05-31T05:28:55.997Z,4.70
2018-05-31T05:30:01.153Z,4.72
2018-05-31T05:31:05.977Z,5.25
2018-05-31T05:32:10.370Z,5.28
2018-05-31T05:33:15.891Z,4.97
2018-05-31T05:34:21.116Z,4.32
2018-05-31T05:35:26.280Z,5.75
2018-05-31T05:36:30.846Z,4.80
2018-05-31T05:37:35.292Z,5.70
2018-05-31T05:38:39.671Z,4.50
2018-05-31T05:40:14.707Z,4.95
2018-05-31T05:41:19.086Z,5.20
2018-05-31T05:42:23.486Z,4.32
2018-05-31T05:43:27.887Z,4.72
2018-05-31T05:44:32.312Z,4.95
2018-05-31T05:45:36.807Z,4.37
2018-05-31T05:46:41.175Z,4.22
2018-05-31T05:47:45.901Z,4.60
2018-05-31T05:48:51.101Z,4.53
2018-05-31T05:49:55.550Z,4.70
2018-05-31T05:50:59.958Z,5.57
2018-05-31T05:52:04.370Z,5.97
2018-05-31T05:53:09.048Z,4.70
2018-05-31T05:54:13.815Z,5.07
2018-05-31T05:55:18.175Z,4.55
2018-05-31T05:56:23.476Z,5.60
2018-05-31T05:57:27.879Z,5.22
2018-05-31T05:58:32.392Z,4.82
2018-05-31T05:59:36.836Z,4.82
2018-05-31T06:00:41.501Z,5.05
2018-05-31T06:01:45.915Z,4.65
2018-05-31T06:02:50.317Z,6.20
2018-05-31T06:03:54.771Z,4.85
2018-05-31T06:04:59.331Z,4.75
2018-05-31T06:06:03.781Z,4.95
2018-05-31T06:07:08.198Z,4.90
2018-05-31T06:08:12.781Z,4.72
2018-05-31T06:09:17.940Z,4.95
2018-05-31T06:10:22.401Z,4.95
2018-05-31T06:11:27.567Z,4.32
2018-05-31T06:12:32.026Z,4.75
2018-05-31T06:13:37.350Z,4.95
2018-05-31T06:14:42.587Z,5.43
2018-05-31T06:15:47.742Z,4.47
2018-05-31T06:16:52.211Z,5.32
2018-05-31T06:17:57.574Z,4.72
2018-05-31T06:19:02.542Z,4.70
2018-05-31T06:20:07.708Z,4.80
2018-05-31T06:21:12.876Z,4.90
2018-05-31T06:22:17.757Z,4.78
2018-05-31T06:23:23.019Z,4.25
2018-05-31T06:24:27.673Z,4.45
2018-05-31T06:25:32.594Z,5.10
2018-05-31T06:26:37.113Z,5.07
2018-05-31T06:27:42.454Z,4.90
2018-05-31T06:28:47.662Z,4.93
2018-05-31T06:29:52.175Z,4.50
2018-05-31T06:30:56.602Z,4.55
2018-05-31T06:32:01.879Z,4.97
2018-05-31T06:33:06.572Z,5.37
2018-05-31T06:34:11.038Z,4.65
2018-05-31T06:35:15.619Z,5.05
2018-05-31T06:36:20.462Z,4.30
2018-05-31T06:37:24.894Z,4.50
2018-05-31T06:38:29.376Z,4.57
2018-05-31T06:39:33.819Z,4.65
2018-05-31T06:40:38.240Z,4.10
2018-05-31T06:41:43.044Z,4.40
2018-05-31T06:42:47.626Z,4.93
2018-05-31T06:43:52.137Z,5.28
2018-05-31T06:44:56.573Z,4.78
2018-05-31T06:46:01.033Z,4.45
2018-05-31T06:47:05.528Z,3.75
2018-05-31T06:48:10.728Z,3.87
2018-05-31T06:49:15.242Z,4.65
2018-05-31T06:50:19.695Z,4.50
2018-05-31T06:51:24.117Z,4.32
2018-05-31T06:52:28.805Z,4.60
2018-05-31T06:53:34.020Z,4.78
2018-05-31T06:54:39.527Z,3.97
2018-05-31T06:57:02.543Z,4.12
2018-05-31T06:58:06.942Z,4.05
2018-05-31T06:59:12.341Z,3.62
2018-05-31T07:00:16.817Z,3.83
2018-05-31T07:01:21.263Z,4.35
2018-05-31T07:02:26.721Z,4.10
2018-05-31T07:03:32.306Z,4.60
2018-05-31T07:04:36.709Z,4.90
2018-05-31T07:05:41.147Z,4.07
2018-05-31T07:06:45.617Z,4.20
2018-05-31T07:07:50.310Z,3.90
2018-05-31T07:08:55.901Z,4.55
2018-05-31T07:10:00.380Z,4.60
2018-05-31T07:11:04.816Z,4.35
2018-05-31T07:12:09.219Z,5.62
2018-05-31T07:13:13.777Z,4.72
2018-05-31T07:14:18.335Z,4.05
2018-05-31T07:15:22.794Z,3.72
2018-05-31T07:16:27.230Z,4.18
2018-05-31T07:17:32.593Z,3.42
2018-05-31T07:18:37.113Z,3.55
2018-05-31T07:19:41.968Z,4.32
2018-05-31T07:20:46.411Z,4.20
2018-05-31T07:21:51.673Z,4.37
2018-05-31T07:22:56.282Z,4.20
2018-05-31T07:24:00.758Z,4.25
2018-05-31T07:25:06.489Z,4.05
2018-05-31T07:26:11.827Z,4.32
2018-05-31T07:27:17.983Z,4.07
2018-05-31T07:28:23.452Z,3.90
2018-05-31T07:29:29.951Z,4.40
2018-05-31T07:30:34.859Z,4.18
2018-05-31T07:31:40.570Z,4.00
2018-05-31T07:32:45.004Z,3.75
2018-05-31T07:33:49.566Z,4.32
2018-05-31T07:34:55.629Z,3.25
2018-05-31T07:36:00.098Z,4.60
2018-05-31T07:37:04.552Z,4.43
2018-05-31T07:38:09.050Z,3.80
2018-05-31T07:39:13.521Z,4.00
2018-05-31T07:40:18.360Z,4.60
2018-05-31T07:41:23.889Z,4.25
2018-05-31T07:42:28.326Z,3.78
2018-05-31T07:43:33.502Z,3.62
2018-05-31T07:44:38.011Z,3.90
2018-05-31T07:45:42.613Z,4.40
2018-05-31T07:46:47.211Z,4.03
2018-05-31T07:47:51.685Z,3.33
2018-05-31T07:48:57.035Z,3.70
2018-05-31T07:50:02.259Z,5.35
2018-05-31T07:51:07.522Z,3.78
2018-05-31T07:52:12.042Z,3.87
2018-05-31T07:53:18.704Z,3.80
2018-05-31T07:54:23.991Z,4.70
2018-05-31T07:55:39.012Z,3.50
2018-05-31T07:56:44.157Z,3.47
2018-05-31T07:57:48.597Z,4.60
2018-05-31T07:58:53.892Z,3.90
2018-05-31T07:59:58.700Z,4.22
2018-05-31T08:01:03.424Z,3.92
2018-05-31T08:02:08.512Z,4.25
2018-05-31T08:03:14.915Z,3.75
2018-05-31T08:04:19.952Z,4.40
2018-05-31T08:05:25.188Z,3.87
2018-05-31T08:06:30.398Z,3.42
2018-05-31T08:07:34.867Z,3.80
2018-05-31T08:08:39.548Z,3.97
2018-05-31T08:09:44.980Z,3.17
2018-05-31T08:10:50.575Z,4.10
2018-05-31T08:11:55.032Z,4.80
2018-05-31T08:12:59.763Z,4.12
2018-05-31T08:14:04.299Z,4.00
2018-05-31T08:15:09.289Z,4.43
2018-05-31T08:16:14.568Z,4.15
2018-05-31T08:17:19.176Z,4.75
2018-05-31T08:18:24.290Z,4.22
2018-05-31T08:19:28.714Z,3.65
2018-05-31T08:20:33.669Z,4.00
2018-05-31T08:21:38.892Z,3.60
2018-05-31T08:22:44.120Z,4.10
2018-05-31T08:23:48.746Z,3.60
2018-05-31T08:24:53.951Z,3.70
2018-05-31T08:25:58.384Z,3.75
2018-05-31T08:27:03.637Z,3.50
2018-05-31T08:28:08.062Z,6.10
2018-05-31T08:29:12.516Z,3.90
2018-05-31T08:30:17.025Z,5.30
2018-05-31T08:31:21.532Z,4.18
2018-05-31T08:32:26.036Z,3.55
2018-05-31T08:33:30.527Z,3.97
2018-05-31T08:34:35.092Z,4.40
2018-05-31T08:35:39.529Z,3.80
2018-05-31T08:36:47.137Z,4.05
2018-05-31T08:37:52.183Z,3.90
2018-05-31T08:38:56.810Z,4.30
2018-05-31T08:40:01.329Z,4.07
2018-05-31T08:41:05.792Z,4.57
2018-05-31T08:42:10.327Z,4.35
2018-05-31T08:43:14.777Z,4.50
2018-05-31T08:44:20.397Z,3.80
2018-05-31T08:45:25.269Z,3.50
2018-05-31T08:46:29.811Z,4.65
2018-05-31T08:47:34.267Z,4.30
2018-05-31T08:48:40.028Z,4.55
2018-05-31T08:49:51.637Z,3.60
2018-05-31T08:50:57.147Z,3.95
2018-05-31T08:52:01.628Z,3.50
2018-05-31T08:53:10.245Z,3.30
2018-05-31T08:54:15.596Z,3.03
2018-05-31T08:55:20.360Z,3.35
2018-05-31T08:56:24.827Z,4.50
2018-05-31T08:57:29.313Z,3.70
2018-05-31T08:58:59.727Z,3.95
2018-05-31T09:00:05.217Z,3.90
2018-05-31T09:01:09.693Z,4.07
2018-05-31T09:02:14.384Z,3.90
2018-05-31T09:03:19.119Z,3.72
2018-05-31T09:04:23.549Z,4.10
2018-05-31T09:05:28.012Z,4.70
2018-05-31T09:06:33.212Z,4.07
2018-05-31T09:07:37.706Z,3.53
2018-05-31T09:08:42.440Z,3.90
2018-05-31T09:09:46.850Z,3.72
2018-05-31T09:10:51.222Z,4.18
2018-05-31T09:11:56.421Z,4.75
2018-05-31T09:13:00.852Z,3.78
2018-05-31T09:14:06.034Z,4.07
2018-05-31T09:15:10.549Z,4.28
2018-05-31T09:16:15.471Z,4.05
2018-05-31T09:17:20.005Z,4.05
2018-05-31T09:18:24.554Z,3.80
2018-05-31T09:19:29.058Z,3.03
2018-05-31T09:20:33.637Z,4.00
2018-05-31T09:21:38.046Z,4.12
2018-05-31T09:22:42.645Z,3.75
2018-05-31T09:23:47.116Z,4.28
2018-05-31T09:24:51.688Z,3.95
2018-05-31T09:25:56.147Z,4.22
2018-05-31T09:27:00.835Z,3.70
2018-05-31T09:28:06.038Z,3.78
2018-05-31T09:29:10.739Z,4.30
2018-05-31T09:30:15.534Z,3.42
2018-05-31T09:31:20.169Z,3.75
2018-05-31T09:32:24.846Z,4.12
2018-05-31T09:33:29.262Z,3.50
2018-05-31T09:34:33.712Z,3.95
2018-05-31T09:35:38.237Z,5.57
2018-05-31T09:36:42.622Z,4.20
2018-05-31T09:37:47.220Z,4.18
2018-05-31T09:38:51.627Z,3.40
2018-05-31T09:39:56.140Z,3.87
2018-05-31T09:41:00.736Z,3.50
2018-05-31T09:42:05.277Z,3.53
2018-05-31T09:43:10.221Z,4.37
2018-05-31T09:44:15.087Z,3.35
2018-05-31T09:45:21.066Z,4.35
2018-05-31T09:46:31.248Z,3.72
2018-05-31T09:47:40.137Z,4.18
2018-05-31T09:48:44.840Z,3.75
2018-05-31T09:49:49.277Z,4.07
2018-05-31T09:50:57.517Z,3.95
2018-05-31T09:52:02.721Z,4.07
2018-05-31T09:53:07.211Z,3.78
2018-05-31T09:54:11.842Z,3.83
2018-05-31T09:55:16.279Z,3.85
2018-05-31T09:56:21.539Z,3.40
2018-05-31T09:57:26.105Z,4.03
2018-05-31T09:58:31.287Z,3.28
2018-05-31T09:59:35.689Z,3.60
2018-05-31T10:00:40.391Z,4.75
2018-05-31T10:01:44.898Z,4.00
2018-05-31T10:02:49.639Z,4.28
2018-05-31T10:03:54.141Z,4.22
2018-05-31T10:04:58.566Z,4.05
2018-05-31T10:06:02.971Z,4.50
2018-05-31T10:07:07.386Z,4.25
2018-05-31T10:08:12.318Z,4.70
2018-05-31T10:09:16.776Z,4.05
2018-05-31T10:10:22.253Z,4.00
2018-05-31T10:11:27.524Z,4.12
2018-05-31T10:12:32.878Z,3.87
2018-05-31T10:13:38.174Z,3.97
2018-05-31T10:14:43.394Z,4.37
2018-05-31T10:15:47.865Z,3.17
2018-05-31T10:16:52.619Z,3.80
2018-05-31T10:17:57.863Z,4.03
2018-05-31T10:19:02.365Z,3.80
2018-05-31T10:20:07.551Z,4.10
2018-05-31T10:21:12.037Z,3.70
2018-05-31T10:22:17.245Z,3.20
2018-05-31T10:23:21.943Z,3.58
2018-05-31T10:24:26.392Z,4.22
2018-05-31T10:25:31.568Z,3.53
2018-05-31T10:26:36.190Z,4.60
2018-05-31T10:27:41.141Z,3.80
2018-05-31T10:28:45.525Z,4.03
2018-05-31T10:29:49.924Z,3.80
2018-05-31T10:30:54.359Z,3.62
2018-05-31T10:31:58.762Z,3.80
2018-05-31T10:33:03.586Z,3.50
2018-05-31T10:34:08.030Z,3.75
2018-05-31T10:35:13.563Z,3.67
2018-05-31T10:36:18.724Z,4.00
2018-05-31T10:37:23.373Z,3.90
2018-05-31T10:38:27.858Z,4.57
2018-05-31T10:39:33.167Z,3.62
2018-05-31T10:40:37.567Z,3.78
2018-05-31T10:41:42.185Z,4.05
2018-05-31T10:42:46.678Z,3.75
2018-05-31T10:43:51.926Z,3.97
2018-05-31T10:44:56.702Z,3.60
2018-05-31T10:46:01.129Z,3.30
2018-05-31T10:47:05.649Z,3.70
2018-05-31T10:48:10.194Z,3.75
2018-05-31T10:49:15.077Z,3.28
2018-05-31T10:50:20.592Z,4.00
2018-05-31T10:51:25.138Z,4.10
2018-05-31T10:52:30.338Z,3.62
2018-05-31T10:53:34.791Z,3.50
2018-05-31T10:54:39.244Z,3.05
2018-05-31T10:55:43.676Z,3.80
2018-05-31T10:56:48.121Z,3.45
2018-05-31T10:57:52.547Z,3.25
2018-05-31T10:58:56.972Z,3.37
2018-05-31T11:00:01.428Z,3.35
2018-05-31T11:01:05.887Z,3.03
2018-05-31T11:02:10.269Z,3.33
2018-05-31T11:03:14.708Z,3.72
2018-05-31T11:04:19.404Z,3.95
2018-05-31T11:05:23.942Z,3.28
2018-05-31T11:06:28.372Z,3.10
2018-05-31T11:07:33.358Z,3.58
2018-05-31T11:08:37.933Z,4.05
2018-05-31T11:09:42.393Z,3.92
2018-05-31T11:10:46.828Z,3.12
2018-05-31T11:11:51.466Z,4.60
2018-05-31T11:12:55.916Z,3.33
2018-05-31T11:14:00.396Z,3.30
2018-05-31T11:15:05.643Z,4.40
2018-05-31T11:16:10.077Z,3.22
2018-05-31T11:17:14.454Z,3.70
2018-05-31T11:18:19.886Z,2.80
2018-05-31T11:19:25.347Z,3.90
2018-05-31T11:20:30.601Z,3.12
2018-05-31T11:21:35.056Z,3.72
2018-05-31T11:22:40.258Z,3.65
2018-05-31T11:23:44.807Z,3.78
2018-05-31T11:24:49.979Z,3.33
2018-05-31T11:25:54.560Z,3.08
2018-05-31T11:26:59.245Z,3.65
2018-05-31T11:28:06.170Z,4.47
2018-05-31T11:29:10.760Z,2.92
2018-05-31T11:30:15.437Z,3.85
2018-05-31T11:31:19.840Z,3.10
2018-05-31T11:32:24.320Z,3.60
2018-05-31T11:33:28.804Z,3.58
2018-05-31T11:34:33.242Z,3.17
2018-05-31T11:35:38.007Z,3.97
2018-05-31T11:36:42.448Z,3.97
2018-05-31T11:37:46.941Z,3.25
2018-05-31T11:38:52.293Z,4.00
2018-05-31T11:39:56.755Z,3.53
2018-05-31T11:41:01.401Z,4.03
2018-05-31T11:42:06.572Z,3.30
2018-05-31T11:43:10.995Z,3.17
2018-05-31T11:44:15.453Z,3.97
2018-05-31T11:45:19.919Z,3.92
2018-05-31T11:46:25.074Z,3.30
2018-05-31T11:47:30.244Z,3.78
2018-05-31T11:48:35.790Z,3.87
2018-05-31T11:49:40.189Z,3.22
2018-05-31T11:50:44.818Z,3.85
2018-05-31T11:51:49.217Z,3.45
2018-05-31T11:52:54.162Z,4.03
2018-05-31T11:53:59.186Z,3.35
2018-05-31T11:55:03.585Z,3.55
2018-05-31T11:56:08.267Z,4.05
2018-05-31T11:57:12.857Z,3.80
2018-05-31T11:58:18.084Z,3.60
2018-05-31T11:59:23.298Z,3.22
2018-05-31T12:00:27.807Z,3.22
2018-05-31T12:01:32.300Z,3.50
2018-05-31T12:02:37.008Z,4.65
2018-05-31T12:03:42.340Z,3.50
2018-05-31T12:04:47.050Z,4.12
2018-05-31T12:05:51.743Z,4.18
2018-05-31T12:06:56.172Z,4.03
2018-05-31T12:08:00.594Z,3.40
2018-05-31T12:09:05.895Z,4.03
2018-05-31T12:10:10.304Z,3.90
2018-05-31T12:11:14.715Z,3.40
2018-05-31T12:12:19.341Z,3.70
2018-05-31T12:13:23.824Z,3.35
2018-05-31T12:14:28.441Z,3.83
2018-05-31T12:15:33.888Z,3.40
2018-05-31T12:16:38.492Z,3.17
2018-05-31T12:17:43.701Z,3.22
2018-05-31T12:18:48.341Z,3.60
2018-05-31T12:19:52.828Z,3.10
2018-05-31T12:20:57.677Z,3.45
2018-05-31T12:22:02.173Z,3.40
2018-05-31T12:23:07.584Z,3.10
2018-05-31T12:24:12.280Z,3.47
2018-05-31T12:25:16.816Z,3.30
2018-05-31T12:26:22.020Z,3.62
2018-05-31T12:27:26.477Z,3.85
2018-05-31T12:28:30.919Z,3.50
2018-05-31T12:29:35.351Z,4.12
2018-05-31T12:30:39.771Z,3.95
2018-05-31T12:31:45.065Z,3.08
2018-05-31T12:32:49.559Z,3.55
2018-05-31T12:33:54.270Z,3.22
2018-05-31T12:34:58.732Z,3.67
2018-05-31T12:36:03.559Z,3.00
2018-05-31T12:37:08.272Z,3.00
2018-05-31T12:38:13.204Z,3.03
2018-05-31T12:39:17.622Z,3.90
2018-05-31T12:40:22.915Z,3.47
2018-05-31T12:41:27.445Z,3.90
2018-05-31T12:42:32.105Z,3.67
2018-05-31T12:43:36.521Z,3.90
2018-05-31T12:44:40.956Z,3.05
2018-05-31T12:45:45.612Z,4.00
2018-05-31T12:46:50.076Z,3.95
2018-05-31T12:47:54.517Z,3.47
2018-05-31T12:48:59.037Z,3.70
2018-05-31T12:50:03.441Z,3.95
2018-05-31T12:51:07.929Z,3.97
2018-05-31T12:52:13.156Z,3.75
2018-05-31T12:53:17.646Z,4.40
2018-05-31T12:54:22.395Z,4.37
2018-05-31T12:55:27.076Z,3.62
2018-05-31T12:56:31.615Z,3.97
2018-05-31T12:57:36.129Z,4.10
2018-05-31T12:58:40.588Z,3.67
2018-05-31T12:59:45.936Z,3.03
2018-05-31T13:00:51.179Z,3.25
2018-05-31T13:01:55.635Z,3.83
2018-05-31T13:03:00.067Z,3.80
2018-05-31T13:04:04.492Z,4.75
2018-05-31T13:05:09.928Z,3.20
2018-05-31T13:06:14.869Z,4.45
2018-05-31T13:07:19.416Z,3.58
2018-05-31T13:08:23.877Z,3.12
2018-05-31T13:09:29.330Z,3.92
2018-05-31T13:10:33.771Z,3.80
2018-05-31T13:11:38.533Z,4.53
2018-05-31T13:12:43.136Z,3.80
2018-05-31T13:13:48.381Z,3.72
2018-05-31T13:14:53.612Z,3.70
2018-05-31T13:15:58.084Z,3.60
2018-05-31T13:17:02.909Z,3.47
2018-05-31T13:18:08.327Z,4.15
2018-05-31T13:19:12.901Z,4.05
2018-05-31T13:20:17.369Z,3.80
2018-05-31T13:21:21.870Z,3.92
2018-05-31T13:22:27.166Z,3.60
2018-05-31T13:23:31.690Z,3.67
2018-05-31T13:24:36.137Z,3.72
2018-05-31T13:25:40.580Z,3.85
2018-05-31T13:26:45.171Z,4.40
2018-05-31T13:27:50.682Z,3.55
2018-05-31T13:28:55.900Z,4.20
2018-05-31T13:30:00.320Z,3.80
2018-05-31T13:31:04.833Z,3.92
2018-05-31T13:32:09.315Z,4.35
2018-05-31T13:33:13.847Z,3.78
2018-05-31T13:34:18.326Z,3.97
2018-05-31T13:35:22.787Z,4.70
2018-05-31T13:36:27.301Z,4.70
2018-05-31T13:37:31.825Z,4.00
2018-05-31T13:38:37.033Z,4.20
2018-05-31T13:39:41.525Z,3.55
2018-05-31T13:40:46.300Z,4.07
2018-05-31T13:41:51.997Z,4.03
2018-05-31T13:42:56.463Z,3.53
2018-05-31T13:44:01.157Z,3.55
2018-05-31T13:45:06.413Z,4.12
2018-05-31T13:46:10.958Z,3.70
2018-05-31T13:47:15.674Z,3.45
2018-05-31T13:48:20.240Z,4.22
2018-05-31T13:49:25.517Z,4.18
2018-05-31T13:50:30.396Z,4.18
2018-05-31T13:51:34.984Z,3.97
2018-05-31T13:52:39.440Z,4.00
2018-05-31T13:53:45.526Z,3.92
2018-05-31T13:54:50.044Z,4.32
2018-05-31T13:55:55.733Z,4.37
2018-05-31T13:57:00.283Z,3.80
2018-05-31T13:58:04.925Z,4.28
2018-05-31T13:59:09.737Z,4.25
2018-05-31T14:00:14.481Z,3.60
2018-05-31T14:01:19.191Z,3.72
2018-05-31T14:02:23.716Z,3.87
2018-05-31T14:03:28.633Z,4.57
2018-05-31T14:04:33.362Z,3.25
2018-05-31T14:05:38.148Z,3.75
2018-05-31T14:06:43.479Z,4.25
2018-05-31T14:07:48.046Z,4.70
2018-05-31T14:08:53.271Z,4.15
2018-05-31T14:09:57.810Z,4.28
2018-05-31T14:11:02.407Z,4.45
2018-05-31T14:12:06.926Z,4.00
2018-05-31T14:13:11.982Z,4.50
2018-05-31T14:14:17.327Z,4.87
2018-05-31T14:15:23.223Z,3.78
2018-05-31T14:16:27.771Z,4.50
2018-05-31T14:17:32.352Z,3.95
2018-05-31T14:18:40.134Z,3.85
2018-05-31T14:19:44.661Z,3.95
2018-05-31T14:20:49.201Z,4.53
2018-05-31T14:21:53.781Z,5.60
2018-05-31T14:22:58.426Z,4.78
2018-05-31T14:24:03.457Z,4.55
2018-05-31T14:25:08.143Z,4.35
2018-05-31T14:26:12.748Z,3.83
2018-05-31T14:27:17.233Z,4.60